sensor_id;sensor_type;location;lat;lon;timestamp;P1;durP1;ratioP1;P2;durP2;ratioP2
68455;SDS011;55437;55.046;38.838;2023-04-25T07:17:35;9.60;;;3.03;;
68455;SDS011;55437;55.046;38.838;2023-04-25T07:20:05;10.13;;;3.47;;
68455;SDS011;55437;55.046;38.838;2023-04-25T07:22:36;8.98;;;3.97;;
68455;SDS011;55437;55.046;38.838;2023-04-25T07:25:05;9.55;;;3.92;;
68455;SDS011;55437;55.046;38.838;2023-04-25T07:30:19;11.00;;;4.88;;
68455;SDS011;55437;55.046;38.838;2023-04-25T07:32:50;11.70;;;4.63;;
68455;SDS011;55437;55.046;38.838;2023-04-25T07:37:47;10.98;;;4.30;;
68455;SDS011;55437;55.046;38.838;2023-04-25T07:40:27;9.45;;;4.63;;
68455;SDS011;55437;55.046;38.838;2023-04-25T07:43:03;11.05;;;5.35;;
68455;SDS011;55437;55.046;38.838;2023-04-25T07:45:38;15.20;;;5.43;;
68455;SDS011;55437;55.046;38.838;2023-04-25T07:48:30;9.98;;;5.15;;
68455;SDS011;55437;55.046;38.838;2023-04-25T07:51:15;9.63;;;5.03;;
68455;SDS011;55437;55.046;38.838;2023-04-25T07:53:42;9.82;;;4.40;;
68455;SDS011;55437;55.046;38.838;2023-04-25T07:56:15;12.80;;;6.15;;
68455;SDS011;55437;55.046;38.838;2023-04-25T07:58:45;12.93;;;5.28;;
68455;SDS011;55437;55.046;38.838;2023-04-25T08:01:13;10.60;;;4.47;;
68455;SDS011;55437;55.046;38.838;2023-04-25T08:03:51;10.60;;;4.65;;
68455;SDS011;55437;55.046;38.838;2023-04-25T08:06:24;8.63;;;3.95;;
68455;SDS011;55437;55.046;38.838;2023-04-25T08:09:28;10.50;;;4.20;;
68455;SDS011;55437;55.046;38.838;2023-04-25T08:12:07;9.50;;;4.20;;
68455;SDS011;55437;55.046;38.838;2023-04-25T08:14:35;9.98;;;4.20;;
68455;SDS011;55437;55.046;38.838;2023-04-25T08:17:07;9.30;;;4.20;;
68455;SDS011;55437;55.046;38.838;2023-04-25T08:19:40;9.10;;;4.28;;
68455;SDS011;55437;55.046;38.838;2023-04-25T08:22:16;12.57;;;4.68;;
68455;SDS011;55437;55.046;38.838;2023-04-25T08:24:50;12.75;;;4.55;;
68455;SDS011;55437;55.046;38.838;2023-04-25T08:27:18;11.85;;;4.78;;
68455;SDS011;55437;55.046;38.838;2023-04-25T08:29:44;12.00;;;4.95;;
68455;SDS011;55437;55.046;38.838;2023-04-25T08:32:40;12.27;;;4.53;;
68455;SDS011;55437;55.046;38.838;2023-04-25T08:35:31;9.32;;;5.32;;
68455;SDS011;55437;55.046;38.838;2023-04-25T08:37:59;9.60;;;4.38;;
68455;SDS011;55437;55.046;38.838;2023-04-25T08:40:27;15.23;;;6.22;;
68455;SDS011;55437;55.046;38.838;2023-04-25T08:43:06;9.90;;;3.92;;
68455;SDS011;55437;55.046;38.838;2023-04-25T08:45:59;15.88;;;5.00;;
68455;SDS011;55437;55.046;38.838;2023-04-25T08:48:39;13.40;;;4.75;;
68455;SDS011;55437;55.046;38.838;2023-04-25T08:51:32;11.30;;;3.90;;
68455;SDS011;55437;55.046;38.838;2023-04-25T08:56:33;10.75;;;4.68;;
68455;SDS011;55437;55.046;38.838;2023-04-25T08:59:02;11.23;;;4.90;;
68455;SDS011;55437;55.046;38.838;2023-04-25T09:01:28;8.82;;;4.63;;
68455;SDS011;55437;55.046;38.838;2023-04-25T09:03:56;10.15;;;4.00;;
68455;SDS011;55437;55.046;38.838;2023-04-25T09:06:23;13.50;;;5.05;;
68455;SDS011;55437;55.046;38.838;2023-04-25T09:08:50;11.18;;;4.72;;
68455;SDS011;55437;55.046;38.838;2023-04-25T09:11:15;10.98;;;4.68;;
68455;SDS011;55437;55.046;38.838;2023-04-25T09:13:42;10.88;;;5.30;;
68455;SDS011;55437;55.046;38.838;2023-04-25T09:16:22;16.55;;;6.20;;
68455;SDS011;55437;55.046;38.838;2023-04-25T09:19:17;12.98;;;5.30;;
68455;SDS011;55437;55.046;38.838;2023-04-25T09:21:49;14.07;;;5.10;;
68455;SDS011;55437;55.046;38.838;2023-04-25T09:24:15;11.27;;;4.72;;
68455;SDS011;55437;55.046;38.838;2023-04-25T09:26:41;12.45;;;5.18;;
68455;SDS011;55437;55.046;38.838;2023-04-25T09:29:09;12.20;;;4.70;;
68455;SDS011;55437;55.046;38.838;2023-04-25T09:31:39;9.48;;;3.72;;
68455;SDS011;55437;55.046;38.838;2023-04-25T09:34:08;12.65;;;4.32;;
68455;SDS011;55437;55.046;38.838;2023-04-25T09:36:42;13.38;;;4.50;;
68455;SDS011;55437;55.046;38.838;2023-04-25T09:39:23;13.60;;;4.47;;
68455;SDS011;55437;55.046;38.838;2023-04-25T09:42:02;9.73;;;4.43;;
68455;SDS011;55437;55.046;38.838;2023-04-25T09:44:32;9.82;;;4.13;;
68455;SDS011;55437;55.046;38.838;2023-04-25T09:46:59;12.23;;;4.63;;
68455;SDS011;55437;55.046;38.838;2023-04-25T09:53:03;10.63;;;4.88;;
68455;SDS011;55437;55.046;38.838;2023-04-25T09:55:47;11.38;;;4.68;;
68455;SDS011;55437;55.046;38.838;2023-04-25T10:01:30;10.07;;;4.60;;
68455;SDS011;55437;55.046;38.838;2023-04-25T10:04:05;9.45;;;4.60;;
68455;SDS011;55437;55.046;38.838;2023-04-25T10:06:49;17.48;;;6.30;;
68455;SDS011;55437;55.046;38.838;2023-04-25T10:09:21;9.70;;;4.50;;
68455;SDS011;55437;55.046;38.838;2023-04-25T10:11:52;9.75;;;4.85;;
68455;SDS011;55437;55.046;38.838;2023-04-25T10:14:20;8.30;;;4.15;;
68455;SDS011;55437;55.046;38.838;2023-04-25T10:16:48;11.40;;;5.00;;
68455;SDS011;55437;55.046;38.838;2023-04-25T10:19:14;11.32;;;5.20;;
68455;SDS011;55437;55.046;38.838;2023-04-25T10:24:38;9.90;;;4.30;;
68455;SDS011;55437;55.046;38.838;2023-04-25T10:27:30;11.52;;;4.22;;
68455;SDS011;55437;55.046;38.838;2023-04-25T10:30:01;10.05;;;4.40;;
68455;SDS011;55437;55.046;38.838;2023-04-25T10:32:32;8.38;;;4.07;;
68455;SDS011;55437;55.046;38.838;2023-04-25T10:35:09;11.73;;;4.53;;
68455;SDS011;55437;55.046;38.838;2023-04-25T10:38:04;10.15;;;4.60;;
68455;SDS011;55437;55.046;38.838;2023-04-25T10:40:36;10.02;;;4.78;;
68455;SDS011;55437;55.046;38.838;2023-04-25T10:46:01;10.60;;;4.43;;
68455;SDS011;55437;55.046;38.838;2023-04-25T10:48:29;10.80;;;4.07;;
68455;SDS011;55437;55.046;38.838;2023-04-25T10:51:09;11.93;;;4.10;;
68455;SDS011;55437;55.046;38.838;2023-04-25T10:53:36;11.88;;;4.30;;
68455;SDS011;55437;55.046;38.838;2023-04-25T10:56:19;17.38;;;4.95;;
68455;SDS011;55437;55.046;38.838;2023-04-25T10:58:46;10.05;;;3.92;;
68455;SDS011;55437;55.046;38.838;2023-04-25T11:01:42;11.55;;;3.78;;
68455;SDS011;55437;55.046;38.838;2023-04-25T11:04:26;10.88;;;3.67;;
68455;SDS011;55437;55.046;38.838;2023-04-25T11:09:38;10.77;;;4.88;;
68455;SDS011;55437;55.046;38.838;2023-04-25T11:12:09;10.65;;;5.38;;
68455;SDS011;55437;55.046;38.838;2023-04-25T11:14:41;10.93;;;5.45;;
68455;SDS011;55437;55.046;38.838;2023-04-25T11:17:07;14.73;;;5.25;;
68455;SDS011;55437;55.046;38.838;2023-04-25T11:19:34;21.38;;;6.35;;
68455;SDS011;55437;55.046;38.838;2023-04-25T11:22:00;9.35;;;3.92;;
68455;SDS011;55437;55.046;38.838;2023-04-25T11:27:52;13.88;;;3.67;;
68455;SDS011;55437;55.046;38.838;2023-04-25T11:30:20;9.10;;;3.30;;
68455;SDS011;55437;55.046;38.838;2023-04-25T11:32:47;11.85;;;3.65;;
68455;SDS011;55437;55.046;38.838;2023-04-25T11:35:14;8.40;;;3.63;;
68455;SDS011;55437;55.046;38.838;2023-04-25T11:37:44;9.90;;;3.63;;
68455;SDS011;55437;55.046;38.838;2023-04-25T11:40:11;9.20;;;3.80;;
68455;SDS011;55437;55.046;38.838;2023-04-25T11:42:38;8.77;;;3.72;;
68455;SDS011;55437;55.046;38.838;2023-04-25T11:45:06;10.95;;;3.90;;
68455;SDS011;55437;55.046;38.838;2023-04-25T11:47:33;8.27;;;3.45;;
68455;SDS011;55437;55.046;38.838;2023-04-25T11:49:59;8.98;;;3.78;;
68455;SDS011;55437;55.046;38.838;2023-04-25T11:52:39;9.45;;;3.75;;
68455;SDS011;55437;55.046;38.838;2023-04-25T11:55:09;8.30;;;3.55;;
68455;SDS011;55437;55.046;38.838;2023-04-25T12:00:35;11.43;;;4.30;;
68455;SDS011;55437;55.046;38.838;2023-04-25T12:03:01;10.55;;;4.72;;
68455;SDS011;55437;55.046;38.838;2023-04-25T12:05:29;11.98;;;5.22;;
68455;SDS011;55437;55.046;38.838;2023-04-25T12:07:57;13.00;;;4.97;;
68455;SDS011;55437;55.046;38.838;2023-04-25T12:10:24;12.43;;;5.63;;
68455;SDS011;55437;55.046;38.838;2023-04-25T12:12:53;20.95;;;6.43;;
68455;SDS011;55437;55.046;38.838;2023-04-25T12:15:23;15.57;;;5.30;;
68455;SDS011;55437;55.046;38.838;2023-04-25T12:18:10;10.00;;;4.85;;
68455;SDS011;55437;55.046;38.838;2023-04-25T12:20:36;11.23;;;4.20;;
68455;SDS011;55437;55.046;38.838;2023-04-25T12:23:05;11.68;;;5.32;;
68455;SDS011;55437;55.046;38.838;2023-04-25T12:25:40;10.02;;;4.07;;
68455;SDS011;55437;55.046;38.838;2023-04-25T12:30:55;12.27;;;4.53;;
68455;SDS011;55437;55.046;38.838;2023-04-25T12:33:32;10.88;;;4.25;;
68455;SDS011;55437;55.046;38.838;2023-04-25T12:36:28;7.82;;;2.70;;
68455;SDS011;55437;55.046;38.838;2023-04-25T12:38:54;9.48;;;2.58;;
68455;SDS011;55437;55.046;38.838;2023-04-25T12:41:21;6.78;;;2.53;;
68455;SDS011;55437;55.046;38.838;2023-04-25T12:43:47;7.07;;;2.22;;
68455;SDS011;55437;55.046;38.838;2023-04-25T12:46:13;5.30;;;2.13;;
68455;SDS011;55437;55.046;38.838;2023-04-25T12:48:40;6.35;;;1.80;;
68455;SDS011;55437;55.046;38.838;2023-04-25T12:51:06;8.43;;;2.30;;
68455;SDS011;55437;55.046;38.838;2023-04-25T12:53:32;8.15;;;2.70;;
68455;SDS011;55437;55.046;38.838;2023-04-25T12:55:58;6.13;;;2.28;;
68455;SDS011;55437;55.046;38.838;2023-04-25T12:58:24;7.78;;;2.60;;
68455;SDS011;55437;55.046;38.838;2023-04-25T13:00:51;9.40;;;2.30;;
68455;SDS011;55437;55.046;38.838;2023-04-25T13:03:17;8.20;;;2.50;;
68455;SDS011;55437;55.046;38.838;2023-04-25T13:05:44;9.02;;;2.15;;
68455;SDS011;55437;55.046;38.838;2023-04-25T13:08:10;6.13;;;2.30;;
68455;SDS011;55437;55.046;38.838;2023-04-25T13:10:37;5.25;;;2.08;;
68455;SDS011;55437;55.046;38.838;2023-04-25T13:13:04;6.10;;;2.28;;
68455;SDS011;55437;55.046;38.838;2023-04-25T13:15:30;6.50;;;2.60;;
68455;SDS011;55437;55.046;38.838;2023-04-25T13:17:56;6.93;;;2.40;;
68455;SDS011;55437;55.046;38.838;2023-04-25T13:20:22;10.05;;;2.30;;
68455;SDS011;55437;55.046;38.838;2023-04-25T13:22:48;8.15;;;2.33;;
68455;SDS011;55437;55.046;38.838;2023-04-25T13:25:14;6.10;;;2.25;;
68455;SDS011;55437;55.046;38.838;2023-04-25T13:27:41;6.00;;;2.13;;
68455;SDS011;55437;55.046;38.838;2023-04-25T13:30:09;5.95;;;2.08;;
68455;SDS011;55437;55.046;38.838;2023-04-25T13:33:01;6.20;;;2.35;;
68455;SDS011;55437;55.046;38.838;2023-04-25T13:35:34;7.47;;;2.70;;
68455;SDS011;55437;55.046;38.838;2023-04-25T13:38:01;7.32;;;3.10;;
68455;SDS011;55437;55.046;38.838;2023-04-25T13:40:28;9.45;;;2.47;;
68455;SDS011;55437;55.046;38.838;2023-04-25T13:42:56;8.60;;;2.40;;
68455;SDS011;55437;55.046;38.838;2023-04-25T13:45:24;7.57;;;2.55;;
68455;SDS011;55437;55.046;38.838;2023-04-25T13:47:50;10.02;;;2.88;;
68455;SDS011;55437;55.046;38.838;2023-04-25T13:50:16;8.05;;;2.63;;
68455;SDS011;55437;55.046;38.838;2023-04-25T13:52:42;7.35;;;2.63;;
68455;SDS011;55437;55.046;38.838;2023-04-25T13:55:10;9.45;;;2.90;;
68455;SDS011;55437;55.046;38.838;2023-04-25T13:57:37;6.82;;;2.75;;
68455;SDS011;55437;55.046;38.838;2023-04-25T14:00:03;9.15;;;3.25;;
68455;SDS011;55437;55.046;38.838;2023-04-25T14:02:36;7.93;;;2.75;;
68455;SDS011;55437;55.046;38.838;2023-04-25T14:05:03;10.02;;;3.17;;
68455;SDS011;55437;55.046;38.838;2023-04-25T14:07:31;10.32;;;2.63;;
68455;SDS011;55437;55.046;38.838;2023-04-25T14:10:23;7.07;;;2.72;;
68455;SDS011;55437;55.046;38.838;2023-04-25T14:12:55;8.43;;;2.53;;
68455;SDS011;55437;55.046;38.838;2023-04-25T14:15:20;7.57;;;2.33;;
68455;SDS011;55437;55.046;38.838;2023-04-25T14:17:47;11.93;;;2.65;;
68455;SDS011;55437;55.046;38.838;2023-04-25T14:20:13;7.78;;;2.45;;
68455;SDS011;55437;55.046;38.838;2023-04-25T14:22:47;7.45;;;2.80;;
68455;SDS011;55437;55.046;38.838;2023-04-25T14:25:13;8.60;;;2.90;;
68455;SDS011;55437;55.046;38.838;2023-04-25T14:27:39;9.95;;;3.00;;
68455;SDS011;55437;55.046;38.838;2023-04-25T14:30:05;8.45;;;2.45;;
68455;SDS011;55437;55.046;38.838;2023-04-25T14:32:35;8.30;;;2.80;;
68455;SDS011;55437;55.046;38.838;2023-04-25T14:35:01;8.80;;;2.65;;
68455;SDS011;55437;55.046;38.838;2023-04-25T14:37:28;8.23;;;2.50;;
68455;SDS011;55437;55.046;38.838;2023-04-25T14:39:55;7.97;;;2.85;;
68455;SDS011;55437;55.046;38.838;2023-04-25T14:42:21;6.80;;;2.35;;
68455;SDS011;55437;55.046;38.838;2023-04-25T14:44:46;6.70;;;2.75;;
68455;SDS011;55437;55.046;38.838;2023-04-25T14:47:13;6.72;;;2.75;;
68455;SDS011;55437;55.046;38.838;2023-04-25T14:49:38;7.38;;;2.10;;
68455;SDS011;55437;55.046;38.838;2023-04-25T14:54:58;8.40;;;2.70;;
68455;SDS011;55437;55.046;38.838;2023-04-25T14:57:32;6.88;;;2.80;;
68455;SDS011;55437;55.046;38.838;2023-04-25T14:59:58;8.35;;;2.60;;
68455;SDS011;55437;55.046;38.838;2023-04-25T15:02:49;8.93;;;2.83;;
68455;SDS011;55437;55.046;38.838;2023-04-25T15:05:16;7.60;;;2.72;;
68455;SDS011;55437;55.046;38.838;2023-04-25T15:07:44;8.48;;;2.90;;
68455;SDS011;55437;55.046;38.838;2023-04-25T15:10:13;9.23;;;2.95;;
68455;SDS011;55437;55.046;38.838;2023-04-25T15:12:44;8.30;;;3.00;;
68455;SDS011;55437;55.046;38.838;2023-04-25T15:15:11;10.40;;;2.85;;
68455;SDS011;55437;55.046;38.838;2023-04-25T15:17:38;8.20;;;3.03;;
68455;SDS011;55437;55.046;38.838;2023-04-25T15:20:12;8.32;;;2.88;;
68455;SDS011;55437;55.046;38.838;2023-04-25T15:22:40;7.72;;;2.63;;
68455;SDS011;55437;55.046;38.838;2023-04-25T15:25:08;9.05;;;3.13;;
68455;SDS011;55437;55.046;38.838;2023-04-25T15:27:38;7.55;;;2.70;;
68455;SDS011;55437;55.046;38.838;2023-04-25T15:30:30;8.15;;;2.85;;
68455;SDS011;55437;55.046;38.838;2023-04-25T15:33:00;9.35;;;3.00;;
68455;SDS011;55437;55.046;38.838;2023-04-25T15:35:25;7.43;;;3.00;;
68455;SDS011;55437;55.046;38.838;2023-04-25T15:37:53;7.53;;;3.08;;
68455;SDS011;55437;55.046;38.838;2023-04-25T15:40:19;6.93;;;2.72;;
68455;SDS011;55437;55.046;38.838;2023-04-25T15:42:47;8.52;;;3.25;;
68455;SDS011;55437;55.046;38.838;2023-04-25T15:45:19;10.82;;;3.95;;
68455;SDS011;55437;55.046;38.838;2023-04-25T15:47:50;8.25;;;3.58;;
68455;SDS011;55437;55.046;38.838;2023-04-25T15:50:17;7.72;;;3.03;;
68455;SDS011;55437;55.046;38.838;2023-04-25T15:52:43;7.35;;;3.13;;
68455;SDS011;55437;55.046;38.838;2023-04-25T15:55:10;11.23;;;3.40;;
68455;SDS011;55437;55.046;38.838;2023-04-25T15:57:44;7.70;;;3.30;;
68455;SDS011;55437;55.046;38.838;2023-04-25T16:00:11;8.52;;;3.60;;
68455;SDS011;55437;55.046;38.838;2023-04-25T16:02:39;9.30;;;3.20;;
68455;SDS011;55437;55.046;38.838;2023-04-25T16:05:06;9.77;;;3.95;;
68455;SDS011;55437;55.046;38.838;2023-04-25T16:10:18;9.98;;;3.40;;
68455;SDS011;55437;55.046;38.838;2023-04-25T16:13:13;10.15;;;3.35;;
68455;SDS011;55437;55.046;38.838;2023-04-25T16:15:39;8.60;;;3.58;;
68455;SDS011;55437;55.046;38.838;2023-04-25T16:18:05;9.48;;;4.38;;
68455;SDS011;55437;55.046;38.838;2023-04-25T16:20:34;11.77;;;4.50;;
68455;SDS011;55437;55.046;38.838;2023-04-25T16:23:19;9.43;;;4.13;;
68455;SDS011;55437;55.046;38.838;2023-04-25T16:25:50;10.02;;;4.13;;
68455;SDS011;55437;55.046;38.838;2023-04-25T16:28:20;11.23;;;5.10;;
68455;SDS011;55437;55.046;38.838;2023-04-25T16:30:48;12.50;;;4.28;;
68455;SDS011;55437;55.046;38.838;2023-04-25T16:33:14;11.20;;;4.85;;
68455;SDS011;55437;55.046;38.838;2023-04-25T16:35:42;13.00;;;4.78;;
68455;SDS011;55437;55.046;38.838;2023-04-25T16:38:09;14.90;;;5.00;;
68455;SDS011;55437;55.046;38.838;2023-04-25T16:40:35;11.50;;;5.13;;
68455;SDS011;55437;55.046;38.838;2023-04-25T16:43:02;13.90;;;5.93;;
68455;SDS011;55437;55.046;38.838;2023-04-25T16:45:30;10.45;;;5.60;;
68455;SDS011;55437;55.046;38.838;2023-04-25T16:47:55;11.52;;;5.57;;
68455;SDS011;55437;55.046;38.838;2023-04-25T16:50:22;10.38;;;4.45;;
68455;SDS011;55437;55.046;38.838;2023-04-25T16:56:22;12.60;;;4.82;;
68455;SDS011;55437;55.046;38.838;2023-04-25T16:58:49;11.45;;;5.53;;
68455;SDS011;55437;55.046;38.838;2023-04-25T17:04:09;11.20;;;5.28;;
68455;SDS011;55437;55.046;38.838;2023-04-25T17:06:36;10.10;;;5.15;;
68455;SDS011;55437;55.046;38.838;2023-04-25T17:11:32;10.65;;;5.65;;
68455;SDS011;55437;55.046;38.838;2023-04-25T17:13:59;12.32;;;5.25;;
68455;SDS011;55437;55.046;38.838;2023-04-25T17:16:34;10.80;;;5.25;;
68455;SDS011;55437;55.046;38.838;2023-04-25T17:22:21;14.02;;;6.90;;
68455;SDS011;55437;55.046;38.838;2023-04-25T17:24:56;12.05;;;6.32;;
68455;SDS011;55437;55.046;38.838;2023-04-25T17:29:53;13.70;;;6.45;;
68455;SDS011;55437;55.046;38.838;2023-04-25T17:32:38;12.75;;;5.88;;
68455;SDS011;55437;55.046;38.838;2023-04-25T17:35:04;13.27;;;5.80;;
68455;SDS011;55437;55.046;38.838;2023-04-25T17:37:31;17.20;;;6.55;;
68455;SDS011;55437;55.046;38.838;2023-04-25T17:39:59;12.00;;;5.78;;
68455;SDS011;55437;55.046;38.838;2023-04-25T17:42:45;15.18;;;6.68;;
68455;SDS011;55437;55.046;38.838;2023-04-25T17:46:01;21.33;;;7.05;;
68455;SDS011;55437;55.046;38.838;2023-04-25T17:48:27;24.50;;;7.70;;
68455;SDS011;55437;55.046;38.838;2023-04-25T17:50:55;22.27;;;8.70;;
68455;SDS011;55437;55.046;38.838;2023-04-25T17:53:22;21.52;;;7.88;;
68455;SDS011;55437;55.046;38.838;2023-04-25T17:55:48;17.05;;;7.50;;
68455;SDS011;55437;55.046;38.838;2023-04-25T17:58:15;23.67;;;8.90;;
68455;SDS011;55437;55.046;38.838;2023-04-25T18:00:42;20.77;;;8.32;;
68455;SDS011;55437;55.046;38.838;2023-04-25T18:03:11;23.88;;;7.68;;
68455;SDS011;55437;55.046;38.838;2023-04-25T18:05:36;22.75;;;7.60;;
68455;SDS011;55437;55.046;38.838;2023-04-25T18:08:04;21.80;;;7.53;;
68455;SDS011;55437;55.046;38.838;2023-04-25T18:10:31;21.70;;;7.25;;
68455;SDS011;55437;55.046;38.838;2023-04-25T18:12:58;18.30;;;6.97;;
68455;SDS011;55437;55.046;38.838;2023-04-25T18:15:25;17.77;;;6.57;;
68455;SDS011;55437;55.046;38.838;2023-04-25T18:17:51;14.85;;;7.80;;
68455;SDS011;55437;55.046;38.838;2023-04-25T18:20:17;14.80;;;6.63;;
68455;SDS011;55437;55.046;38.838;2023-04-25T18:23:13;13.90;;;6.30;;
68455;SDS011;55437;55.046;38.838;2023-04-25T18:25:39;16.08;;;6.43;;
68455;SDS011;55437;55.046;38.838;2023-04-25T18:30:50;13.45;;;6.97;;
68455;SDS011;55437;55.046;38.838;2023-04-25T18:33:19;12.57;;;6.60;;
68455;SDS011;55437;55.046;38.838;2023-04-25T18:35:46;14.20;;;6.70;;
68455;SDS011;55437;55.046;38.838;2023-04-25T18:38:13;12.20;;;6.30;;
68455;SDS011;55437;55.046;38.838;2023-04-25T18:40:40;12.85;;;6.07;;
68455;SDS011;55437;55.046;38.838;2023-04-25T18:43:08;14.93;;;6.82;;
68455;SDS011;55437;55.046;38.838;2023-04-25T18:45:34;14.23;;;6.68;;
68455;SDS011;55437;55.046;38.838;2023-04-25T18:48:01;13.02;;;7.10;;
68455;SDS011;55437;55.046;38.838;2023-04-25T18:50:29;16.30;;;6.85;;
68455;SDS011;55437;55.046;38.838;2023-04-25T18:52:58;15.30;;;7.40;;
68455;SDS011;55437;55.046;38.838;2023-04-25T18:55:29;12.80;;;6.57;;
68455;SDS011;55437;55.046;38.838;2023-04-25T18:57:55;16.55;;;7.53;;
68455;SDS011;55437;55.046;38.838;2023-04-25T19:00:21;14.13;;;6.80;;
68455;SDS011;55437;55.046;38.838;2023-04-25T19:08:12;11.57;;;6.18;;
68455;SDS011;55437;55.046;38.838;2023-04-25T19:10:38;13.85;;;6.80;;
68455;SDS011;55437;55.046;38.838;2023-04-25T19:13:04;12.27;;;6.05;;
68455;SDS011;55437;55.046;38.838;2023-04-25T19:15:30;13.10;;;6.88;;
68455;SDS011;55437;55.046;38.838;2023-04-25T19:17:58;13.90;;;6.68;;
68455;SDS011;55437;55.046;38.838;2023-04-25T19:20:24;12.25;;;6.80;;
68455;SDS011;55437;55.046;38.838;2023-04-25T19:22:51;11.45;;;6.15;;
68455;SDS011;55437;55.046;38.838;2023-04-25T19:25:17;11.75;;;6.40;;
68455;SDS011;55437;55.046;38.838;2023-04-25T19:27:44;11.98;;;5.60;;
68455;SDS011;55437;55.046;38.838;2023-04-25T19:30:11;14.55;;;6.63;;
68455;SDS011;55437;55.046;38.838;2023-04-25T19:32:39;14.13;;;6.25;;
68455;SDS011;55437;55.046;38.838;2023-04-25T19:35:05;13.50;;;6.45;;
68455;SDS011;55437;55.046;38.838;2023-04-25T19:37:36;13.68;;;6.15;;
68455;SDS011;55437;55.046;38.838;2023-04-25T19:40:03;11.80;;;6.38;;
68455;SDS011;55437;55.046;38.838;2023-04-25T19:45:50;13.90;;;6.60;;
68455;SDS011;55437;55.046;38.838;2023-04-25T19:48:17;14.35;;;6.90;;
68455;SDS011;55437;55.046;38.838;2023-04-25T19:50:44;19.92;;;6.90;;
68455;SDS011;55437;55.046;38.838;2023-04-25T19:53:10;16.75;;;7.10;;
68455;SDS011;55437;55.046;38.838;2023-04-25T19:55:36;12.85;;;6.53;;
68455;SDS011;55437;55.046;38.838;2023-04-25T19:58:03;14.35;;;6.95;;
68455;SDS011;55437;55.046;38.838;2023-04-25T20:00:34;12.40;;;5.78;;
68455;SDS011;55437;55.046;38.838;2023-04-25T20:03:02;14.77;;;6.82;;
68455;SDS011;55437;55.046;38.838;2023-04-25T20:05:28;13.15;;;7.38;;
68455;SDS011;55437;55.046;38.838;2023-04-25T20:07:58;12.23;;;6.20;;
68455;SDS011;55437;55.046;38.838;2023-04-25T20:10:24;13.15;;;6.20;;
68455;SDS011;55437;55.046;38.838;2023-04-25T20:12:51;13.05;;;6.47;;
68455;SDS011;55437;55.046;38.838;2023-04-25T20:15:24;15.30;;;6.80;;
68455;SDS011;55437;55.046;38.838;2023-04-25T20:20:46;13.43;;;6.45;;
68455;SDS011;55437;55.046;38.838;2023-04-25T20:23:14;13.73;;;7.05;;
68455;SDS011;55437;55.046;38.838;2023-04-25T20:25:41;14.35;;;7.03;;
68455;SDS011;55437;55.046;38.838;2023-04-25T20:28:08;14.52;;;6.38;;
68455;SDS011;55437;55.046;38.838;2023-04-25T20:30:35;12.65;;;6.18;;
68455;SDS011;55437;55.046;38.838;2023-04-25T20:33:06;13.15;;;6.88;;
68455;SDS011;55437;55.046;38.838;2023-04-25T20:35:39;14.55;;;6.32;;
68455;SDS011;55437;55.046;38.838;2023-04-25T20:38:08;15.70;;;6.70;;
68455;SDS011;55437;55.046;38.838;2023-04-25T20:40:34;15.73;;;6.90;;
68455;SDS011;55437;55.046;38.838;2023-04-25T20:43:00;14.90;;;7.07;;
68455;SDS011;55437;55.046;38.838;2023-04-25T20:45:30;16.30;;;6.30;;
68455;SDS011;55437;55.046;38.838;2023-04-25T20:47:58;14.10;;;6.75;;
68455;SDS011;55437;55.046;38.838;2023-04-25T20:50:24;15.02;;;6.55;;
68455;SDS011;55437;55.046;38.838;2023-04-25T20:52:55;14.68;;;6.20;;
68455;SDS011;55437;55.046;38.838;2023-04-25T20:55:46;15.88;;;7.15;;
68455;SDS011;55437;55.046;38.838;2023-04-25T20:58:39;15.70;;;7.65;;
68455;SDS011;55437;55.046;38.838;2023-04-25T21:01:12;16.13;;;7.28;;
68455;SDS011;55437;55.046;38.838;2023-04-25T21:04:03;17.50;;;7.25;;
68455;SDS011;55437;55.046;38.838;2023-04-25T21:06:31;17.90;;;8.00;;
68455;SDS011;55437;55.046;38.838;2023-04-25T21:08:59;15.40;;;6.85;;
68455;SDS011;55437;55.046;38.838;2023-04-25T21:11:30;15.75;;;7.55;;
68455;SDS011;55437;55.046;38.838;2023-04-25T21:14:02;19.85;;;7.55;;
68455;SDS011;55437;55.046;38.838;2023-04-25T21:16:29;17.30;;;7.78;;
68455;SDS011;55437;55.046;38.838;2023-04-25T21:18:58;14.35;;;7.38;;
68455;SDS011;55437;55.046;38.838;2023-04-25T21:21:51;16.20;;;8.30;;
68455;SDS011;55437;55.046;38.838;2023-04-25T21:24:21;17.70;;;7.75;;
68455;SDS011;55437;55.046;38.838;2023-04-25T21:26:47;18.10;;;7.35;;
68455;SDS011;55437;55.046;38.838;2023-04-25T21:29:19;17.48;;;7.25;;
68455;SDS011;55437;55.046;38.838;2023-04-25T21:31:48;15.43;;;7.93;;
68455;SDS011;55437;55.046;38.838;2023-04-25T21:34:15;18.52;;;8.27;;
68455;SDS011;55437;55.046;38.838;2023-04-25T21:36:43;14.43;;;7.65;;
68455;SDS011;55437;55.046;38.838;2023-04-25T21:39:12;13.93;;;7.90;;
68455;SDS011;55437;55.046;38.838;2023-04-25T21:41:39;18.20;;;8.30;;
68455;SDS011;55437;55.046;38.838;2023-04-25T21:44:05;17.00;;;8.55;;
68455;SDS011;55437;55.046;38.838;2023-04-25T21:46:32;19.02;;;8.82;;
68455;SDS011;55437;55.046;38.838;2023-04-25T21:48:58;16.17;;;8.75;;
68455;SDS011;55437;55.046;38.838;2023-04-25T21:51:24;17.92;;;9.00;;
68455;SDS011;55437;55.046;38.838;2023-04-25T21:54:15;15.65;;;9.20;;
68455;SDS011;55437;55.046;38.838;2023-04-25T21:57:06;18.63;;;8.70;;
68455;SDS011;55437;55.046;38.838;2023-04-25T21:59:32;21.00;;;10.25;;
68455;SDS011;55437;55.046;38.838;2023-04-25T22:02:00;21.67;;;11.07;;
68455;SDS011;55437;55.046;38.838;2023-04-25T22:04:26;23.25;;;10.25;;
68455;SDS011;55437;55.046;38.838;2023-04-25T22:06:52;17.73;;;9.32;;
68455;SDS011;55437;55.046;38.838;2023-04-25T22:09:18;17.52;;;9.25;;
68455;SDS011;55437;55.046;38.838;2023-04-25T22:11:44;17.33;;;9.25;;
68455;SDS011;55437;55.046;38.838;2023-04-25T22:14:13;18.27;;;9.93;;
68455;SDS011;55437;55.046;38.838;2023-04-25T22:16:39;17.95;;;9.30;;
68455;SDS011;55437;55.046;38.838;2023-04-25T22:19:26;23.17;;;10.25;;
68455;SDS011;55437;55.046;38.838;2023-04-25T22:21:52;17.85;;;9.68;;
68455;SDS011;55437;55.046;38.838;2023-04-25T22:24:20;22.00;;;10.32;;
68455;SDS011;55437;55.046;38.838;2023-04-25T22:26:47;21.25;;;10.38;;
68455;SDS011;55437;55.046;38.838;2023-04-25T22:29:42;18.02;;;10.07;;
68455;SDS011;55437;55.046;38.838;2023-04-25T22:34:55;20.30;;;9.90;;
68455;SDS011;55437;55.046;38.838;2023-04-25T22:37:24;14.80;;;8.23;;
68455;SDS011;55437;55.046;38.838;2023-04-25T22:40:10;14.32;;;7.72;;
68455;SDS011;55437;55.046;38.838;2023-04-25T22:42:41;14.60;;;8.32;;
68455;SDS011;55437;55.046;38.838;2023-04-25T22:45:10;16.98;;;7.95;;
68455;SDS011;55437;55.046;38.838;2023-04-25T22:47:55;13.98;;;7.80;;
68455;SDS011;55437;55.046;38.838;2023-04-25T22:50:21;15.18;;;6.85;;
68455;SDS011;55437;55.046;38.838;2023-04-25T22:52:47;14.07;;;7.10;;
68455;SDS011;55437;55.046;38.838;2023-04-25T22:55:13;17.17;;;6.80;;
68455;SDS011;55437;55.046;38.838;2023-04-25T22:57:41;18.25;;;7.07;;
68455;SDS011;55437;55.046;38.838;2023-04-25T23:00:19;12.95;;;6.22;;
68455;SDS011;55437;55.046;38.838;2023-04-25T23:03:05;13.43;;;7.00;;
68455;SDS011;55437;55.046;38.838;2023-04-25T23:08:16;18.77;;;7.65;;
68455;SDS011;55437;55.046;38.838;2023-04-25T23:10:45;13.52;;;6.95;;
68455;SDS011;55437;55.046;38.838;2023-04-25T23:13:11;14.77;;;8.00;;
68455;SDS011;55437;55.046;38.838;2023-04-25T23:15:37;17.88;;;7.13;;